Time;durP1;ratioP1;P1;durP2;ratioP2;P2;SDS_P1;SDS_P2;PMS_P1;PMS_P2;Temp;Humidity;BMP_temperature;BMP_pressure;BME280_temperature;BME280_humidity;BME280_pressure;Samples;Min_cycle;Max_cycle;Signal;HPM_P1;HPM_P2
2022/07/24 00:00:16;;;;;;;12.70;5.40;;;;;;;;;;4969588;28;20061;-68
2022/07/24 00:02:54;;;;;;;12.02;5.65;;;;;;;;;;4955016;28;20486;-69
2022/07/24 00:05:28;;;;;;;12.07;6.13;;;;;;;;;;4949866;29;20062;-69
2022/07/24 00:08:02;;;;;;;13.85;5.90;;;;;;;;;;4965777;28;20054;-69
2022/07/24 00:10:44;;;;;;;9.98;5.93;;;;;;;;;;4930592;29;20078;-69
2022/07/24 00:13:33;;;;;;;12.32;5.80;;;;;;;;;;4930808;29;20088;-69
2022/07/24 00:16:08;;;;;;;10.60;5.38;;;;;;;;;;4946821;29;20067;-69
2022/07/24 00:18:42;;;;;;;12.90;5.65;;;;;;;;;;4931011;29;20051;-70
2022/07/24 00:21:15;;;;;;;13.18;6.32;;;;;;;;;;4931824;29;20055;-69
2022/07/24 00:23:51;;;;;;;15.82;5.70;;;;;;;;;;4949584;28;20574;-69
2022/07/24 00:26:30;;;;;;;10.82;5.15;;;;;;;;;;4912091;29;20513;-70
2022/07/24 00:29:19;;;;;;;13.00;5.55;;;;;;;;;;4934962;29;20056;-69
2022/07/24 00:31:56;;;;;;;15.10;5.85;;;;;;;;;;4911380;29;20059;-69
2022/07/24 00:34:30;;;;;;;13.18;6.68;;;;;;;;;;4911885;29;20509;-70
2022/07/24 00:37:17;;;;;;;16.90;6.80;;;;;;;;;;4865724;29;20050;-69
2022/07/24 00:39:50;;;;;;;12.32;5.70;;;;;;;;;;4837441;29;20073;-69
2022/07/24 00:42:29;;;;;;;17.60;6.05;;;;;;;;;;4834293;29;20062;-69
2022/07/24 00:45:10;;;;;;;11.73;5.68;;;;;;;;;;4846239;29;20046;-70
2022/07/24 00:48:03;;;;;;;11.82;5.43;;;;;;;;;;4855598;29;20076;-69
2022/07/24 00:50:43;;;;;;;16.17;6.05;;;;;;;;;;4846296;29;20053;-69
2022/07/24 00:53:20;;;;;;;14.30;5.95;;;;;;;;;;4874191;29;20053;-70
2022/07/24 00:55:52;;;;;;;15.07;6.30;;;;;;;;;;4873850;29;20107;-69
2022/07/24 00:58:25;;;;;;;13.35;6.18;;;;;;;;;;4859163;29;20057;-69
2022/07/24 01:00:56;;;;;;;;;;;;;;;;;;4898755;29;20417;-69
2022/07/24 01:03:29;;;;;;;16.00;6.90;;;;;;;;;;4871164;29;19930;-69
2022/07/24 01:06:03;;;;;;;19.17;6.63;;;;;;;;;;4873920;29;20057;-69
2022/07/24 01:08:34;;;;;;;;;;;;;;;;;;4905961;29;20064;-70
2022/07/24 01:11:08;;;;;;;13.50;5.60;;;;;;;;;;4926967;29;20372;-69
2022/07/24 01:13:53;;;;;;;22.17;7.78;;;;;;;;;;4899615;29;20414;-70
2022/07/24 01:16:27;;;;;;;15.85;6.50;;;;;;;;;;4886851;29;20061;-69
2022/07/24 01:18:57;;;;;;;12.60;5.50;;;;;;;;;;4858561;29;20064;-69
2022/07/24 01:21:36;;;;;;;12.45;5.97;;;;;;;;;;4875763;29;20057;-69
2022/07/24 01:24:09;;;;;;;13.88;5.85;;;;;;;;;;4892366;29;20057;-69
2022/07/24 01:26:40;;;;;;;12.35;5.95;;;;;;;;;;4877552;29;20061;-69
2022/07/24 01:29:16;;;;;;;13.43;5.63;;;;;;;;;;4897326;29;20063;-69
2022/07/24 01:31:56;;;;;;;19.73;6.97;;;;;;;;;;4915286;29;20429;-69
2022/07/24 01:34:40;;;;;;;16.58;6.20;;;;;;;;;;4895960;29;20056;-69
2022/07/24 01:37:16;;;;;;;15.88;6.20;;;;;;;;;;4840168;29;20058;-70
2022/07/24 01:39:46;;;;;;;12.90;5.65;;;;;;;;;;4811026;29;20054;-69
2022/07/24 01:42:19;;;;;;;18.55;6.40;;;;;;;;;;4821784;29;20054;-69
2022/07/24 01:44:50;;;;;;;14.30;5.53;;;;;;;;;;4837389;29;20537;-69
2022/07/24 01:47:20;;;;;;;15.40;6.78;;;;;;;;;;4880186;29;20051;-69
2022/07/24 01:49:51;;;;;;;14.85;5.97;;;;;;;;;;4895524;29;20060;-67
2022/07/24 01:52:24;;;;;;;17.52;5.90;;;;;;;;;;4879983;29;20052;-67
2022/07/24 01:54:55;;;;;;;15.07;6.07;;;;;;;;;;4895714;29;20060;-69
2022/07/24 01:57:26;;;;;;;11.30;5.95;;;;;;;;;;4895465;29;20064;-70
2022/07/24 01:59:59;;;;;;;11.40;5.57;;;;;;;;;;4895617;29;20060;-70
2022/07/24 02:02:42;;;;;;;13.57;6.38;;;;;;;;;;4895541;29;20406;-68
2022/07/24 02:05:14;;;;;;;18.63;6.45;;;;;;;;;;4947138;29;20055;-70
2022/07/24 02:07:45;;;;;;;11.35;5.40;;;;;;;;;;4952547;29;20066;-70
2022/07/24 02:10:15;;;;;;;10.68;5.32;;;;;;;;;;4960009;28;20066;-68
2022/07/24 02:12:46;;;;;;;13.38;5.53;;;;;;;;;;4991009;28;20058;-68
2022/07/24 02:15:16;;;;;;;14.60;5.47;;;;;;;;;;4991191;28;20062;-68
2022/07/24 02:17:53;;;;;;;14.52;5.97;;;;;;;;;;4962849;28;20082;-69
2022/07/24 02:20:24;;;;;;;17.25;6.47;;;;;;;;;;4971452;28;20050;-69
2022/07/24 02:22:56;;;;;;;19.90;6.22;;;;;;;;;;4971435;28;20054;-68
2022/07/24 02:25:26;;;;;;;15.40;6.28;;;;;;;;;;4969167;28;20058;-69
2022/07/24 02:27:57;;;;;;;18.23;6.68;;;;;;;;;;5013211;28;20057;-69
2022/07/24 02:30:27;;;;;;;14.18;6.00;;;;;;;;;;5030161;28;20069;-69
2022/07/24 02:32:57;;;;;;;14.43;5.75;;;;;;;;;;4980975;28;20159;-69
2022/07/24 02:35:28;;;;;;;13.48;5.97;;;;;;;;;;5089707;28;20062;-69
2022/07/24 02:37:58;;;;;;;12.23;5.32;;;;;;;;;;5110711;28;20050;-69
2022/07/24 02:40:28;;;;;;;14.65;5.78;;;;;;;;;;5110649;28;20059;-69
2022/07/24 02:42:59;;;;;;;13.40;6.30;;;;;;;;;;5111926;28;20419;-70
2022/07/24 02:45:30;;;;;;;16.45;5.90;;;;;;;;;;5113102;28;20047;-71
2022/07/24 02:48:01;;;;;;;14.57;5.88;;;;;;;;;;5112938;28;20062;-70
2022/07/24 02:50:35;;;;;;;13.55;6.43;;;;;;;;;;5089738;28;20416;-71
2022/07/24 02:53:06;;;;;;;12.38;6.00;;;;;;;;;;5090084;28;20056;-70
2022/07/24 02:55:37;;;;;;;12.57;5.57;;;;;;;;;;5053315;28;20055;-71
2022/07/24 02:58:08;;;;;;;12.32;5.10;;;;;;;;;;5069536;28;20045;-70
2022/07/24 03:00:38;;;;;;;14.32;5.40;;;;;;;;;;5053677;28;20060;-70
2022/07/24 03:03:08;;;;;;;11.38;5.30;;;;;;;;;;5069608;28;20045;-70
2022/07/24 03:05:39;;;;;;;12.80;5.53;;;;;;;;;;5069483;28;20040;-70
2022/07/24 03:08:09;;;;;;;16.52;6.80;;;;;;;;;;5069388;28;20412;-70
2022/07/24 03:10:39;;;;;;;14.18;5.72;;;;;;;;;;5069146;28;20051;-70
2022/07/24 03:13:10;;;;;;;13.40;5.10;;;;;;;;;;5029467;28;20053;-70
2022/07/24 03:15:41;;;;;;;9.80;5.05;;;;;;;;;;5029563;28;20045;-70
2022/07/24 03:18:11;;;;;;;14.27;5.57;;;;;;;;;;5012623;28;20041;-70
2022/07/24 03:20:49;;;;;;;13.63;5.65;;;;;;;;;;4989723;28;20529;-70
2022/07/24 03:23:19;;;;;;;14.07;5.35;;;;;;;;;;4990134;28;20054;-70
2022/07/24 03:25:50;;;;;;;11.02;4.90;;;;;;;;;;4990022;28;20055;-70
2022/07/24 03:28:20;;;;;;;11.63;5.22;;;;;;;;;;4934602;28;20039;-70
2022/07/24 03:30:51;;;;;;;12.93;5.43;;;;;;;;;;4951269;28;20051;-70
2022/07/24 03:33:21;;;;;;;11.88;5.65;;;;;;;;;;4929486;28;20062;-70
2022/07/24 03:35:52;;;;;;;13.40;5.07;;;;;;;;;;4950694;28;20055;-70
2022/07/24 03:38:22;;;;;;;13.73;5.55;;;;;;;;;;4903672;28;20047;-70
2022/07/24 03:40:53;;;;;;;12.90;5.30;;;;;;;;;;4950792;28;20055;-70
2022/07/24 03:43:23;;;;;;;14.50;5.75;;;;;;;;;;4966954;28;20431;-70
2022/07/24 03:45:53;;;;;;;13.73;5.13;;;;;;;;;;4949908;28;20051;-69
2022/07/24 03:48:24;;;;;;;15.38;5.55;;;;;;;;;;4950799;28;20055;-70
2022/07/24 03:50:54;;;;;;;11.70;5.03;;;;;;;;;;4940420;28;20054;-70
2022/07/24 03:53:24;;;;;;;13.77;5.68;;;;;;;;;;5009132;28;20053;-72
2022/07/24 03:55:56;;;;;;;11.18;5.13;;;;;;;;;;4993276;28;20045;-69
2022/07/24 03:58:27;;;;;;;13.77;5.50;;;;;;;;;;5008924;28;20054;-70
2022/07/24 04:00:58;;;;;;;11.68;5.70;;;;;;;;;;4989073;28;20058;-69
2022/07/24 04:03:28;;;;;;;14.43;4.85;;;;;;;;;;4941218;28;20061;-69
2022/07/24 04:06:01;;;;;;;10.48;4.93;;;;;;;;;;4988958;28;20061;-71
2022/07/24 04:08:33;;;;;;;11.73;5.32;;;;;;;;;;4941098;28;20085;-70
2022/07/24 04:11:04;;;;;;;12.23;4.82;;;;;;;;;;4989037;28;20062;-70
2022/07/24 04:13:34;;;;;;;12.32;5.38;;;;;;;;;;4935086;28;20043;-70
2022/07/24 04:16:11;;;;;;;13.52;5.68;;;;;;;;;;4969749;28;20059;-71
2022/07/24 04:18:41;;;;;;;14.40;6.32;;;;;;;;;;4921891;28;20062;-71
2022/07/24 04:21:12;;;;;;;13.85;5.18;;;;;;;;;;4969354;28;21161;-70
2022/07/24 04:23:43;;;;;;;11.60;5.38;;;;;;;;;;4950307;29;20055;-70
2022/07/24 04:26:13;;;;;;;11.27;6.20;;;;;;;;;;4950063;29;20393;-70
2022/07/24 04:28:43;;;;;;;11.23;5.40;;;;;;;;;;4931078;29;20043;-70
2022/07/24 04:31:14;;;;;;;12.82;5.13;;;;;;;;;;4931080;29;20059;-69
2022/07/24 04:33:45;;;;;;;10.52;5.47;;;;;;;;;;4931418;29;20063;-69
2022/07/24 04:36:15;;;;;;;16.52;5.53;;;;;;;;;;4949873;29;20567;-71
2022/07/24 04:38:45;;;;;;;11.63;5.70;;;;;;;;;;4929150;29;20052;-70
2022/07/24 04:41:17;;;;;;;10.75;6.30;;;;;;;;;;4949787;29;20517;-70
2022/07/24 04:43:49;;;;;;;12.43;5.32;;;;;;;;;;4911962;28;20090;-70
2022/07/24 04:46:19;;;;;;;11.02;5.40;;;;;;;;;;4962360;28;20052;-69
2022/07/24 04:48:49;;;;;;;11.80;5.10;;;;;;;;;;4930992;29;20081;-70
2022/07/24 04:51:20;;;;;;;14.07;6.90;;;;;;;;;;4968859;28;20435;-69
2022/07/24 04:53:54;;;;;;;12.27;5.90;;;;;;;;;;4969202;28;20066;-70
2022/07/24 04:56:30;;;;;;;13.85;6.60;;;;;;;;;;4971334;28;20423;-70
2022/07/24 04:59:01;;;;;;;11.57;5.68;;;;;;;;;;4983977;28;20054;-69
2022/07/24 05:01:32;;;;;;;12.52;4.53;;;;;;;;;;4972071;28;20047;-69
2022/07/24 05:04:02;;;;;;;11.45;5.55;;;;;;;;;;4973041;28;20093;-70
2022/07/24 05:06:33;;;;;;;12.35;4.80;;;;;;;;;;4972713;28;20058;-70
2022/07/24 05:09:04;;;;;;;13.75;4.80;;;;;;;;;;4957622;28;20055;-70
2022/07/24 05:11:34;;;;;;;11.82;5.35;;;;;;;;;;4972818;28;20136;-70
2022/07/24 05:14:04;;;;;;;10.68;4.68;;;;;;;;;;4972771;28;20538;-70
2022/07/24 05:16:35;;;;;;;10.43;4.63;;;;;;;;;;5008086;28;20050;-70
2022/07/24 05:19:05;;;;;;;8.40;4.18;;;;;;;;;;4989015;28;20054;-70
2022/07/24 05:21:36;;;;;;;10.77;4.93;;;;;;;;;;4972707;28;20082;-70
2022/07/24 05:24:07;;;;;;;11.65;5.95;;;;;;;;;;4981140;28;20438;-70
2022/07/24 05:26:37;;;;;;;10.68;5.03;;;;;;;;;;4956287;28;20062;-70
2022/07/24 05:29:08;;;;;;;13.07;5.07;;;;;;;;;;4994194;28;20058;-70
2022/07/24 05:31:38;;;;;;;10.35;5.00;;;;;;;;;;4962771;28;20066;-70
2022/07/24 05:34:09;;;;;;;12.10;4.68;;;;;;;;;;5011876;28;20057;-70
2022/07/24 05:36:39;;;;;;;10.27;4.47;;;;;;;;;;5011517;28;20050;-70
2022/07/24 05:39:10;;;;;;;11.82;4.72;;;;;;;;;;5030623;28;20060;-70
2022/07/24 05:41:40;;;;;;;10.90;4.43;;;;;;;;;;5031105;28;20517;-69
2022/07/24 05:44:11;;;;;;;11.23;4.72;;;;;;;;;;4997776;28;20053;-70
2022/07/24 05:46:42;;;;;;;10.52;5.25;;;;;;;;;;5011361;28;20054;-70
2022/07/24 05:49:12;;;;;;;9.88;4.07;;;;;;;;;;5011401;28;20518;-70
2022/07/24 05:51:43;;;;;;;9.60;4.55;;;;;;;;;;5011201;28;20046;-71
2022/07/24 05:54:14;;;;;;;12.40;4.97;;;;;;;;;;4991521;28;20053;-70
2022/07/24 05:56:44;;;;;;;12.68;5.28;;;;;;;;;;4974883;28;20055;-69
2022/07/24 05:59:14;;;;;;;14.02;4.88;;;;;;;;;;4992048;28;20057;-71
2022/07/24 06:01:45;;;;;;;13.25;4.70;;;;;;;;;;5000863;28;20049;-71
2022/07/24 06:04:15;;;;;;;11.35;4.55;;;;;;;;;;4988434;28;20054;-70
2022/07/24 06:06:45;;;;;;;9.77;4.55;;;;;;;;;;5010545;28;20058;-71
2022/07/24 06:09:16;;;;;;;12.15;4.63;;;;;;;;;;4994532;28;20057;-70
2022/07/24 06:11:46;;;;;;;9.07;4.18;;;;;;;;;;5010793;28;20058;-69
2022/07/24 06:14:16;;;;;;;9.95;4.25;;;;;;;;;;4995027;28;20061;-69
2022/07/24 06:16:46;;;;;;;10.38;4.28;;;;;;;;;;4997371;28;20060;-69
2022/07/24 06:19:17;;;;;;;10.73;4.35;;;;;;;;;;5034311;28;20517;-68
2022/07/24 06:21:47;;;;;;;13.77;4.38;;;;;;;;;;5050429;28;20049;-69
2022/07/24 06:24:17;;;;;;;10.13;4.47;;;;;;;;;;5014239;28;20057;-69
2022/07/24 06:26:48;;;;;;;11.73;4.50;;;;;;;;;;5030540;28;20576;-68
2022/07/24 06:29:38;;;;;;;9.02;4.28;;;;;;;;;;4997516;28;20056;-69
2022/07/24 06:32:09;;;;;;;11.70;4.57;;;;;;;;;;5010193;28;20045;-69
2022/07/24 06:34:39;;;;;;;9.18;4.15;;;;;;;;;;4994028;28;20089;-69
2022/07/24 06:37:09;;;;;;;8.43;3.85;;;;;;;;;;4993796;28;20062;-68
2022/07/24 06:39:40;;;;;;;11.00;3.85;;;;;;;;;;5022680;28;20093;-68
2022/07/24 06:42:10;;;;;;;12.00;4.47;;;;;;;;;;4964582;28;20060;-68
2022/07/24 06:44:40;;;;;;;11.63;4.38;;;;;;;;;;4977801;28;20529;-69
2022/07/24 06:47:10;;;;;;;11.55;4.22;;;;;;;;;;5010269;28;20050;-68
2022/07/24 06:49:41;;;;;;;9.57;4.20;;;;;;;;;;5010234;28;20062;-68
2022/07/24 06:52:11;;;;;;;13.05;4.35;;;;;;;;;;4994179;28;20679;-69
2022/07/24 06:54:41;;;;;;;12.35;3.65;;;;;;;;;;5010341;28;20057;-68
2022/07/24 06:57:12;;;;;;;8.35;3.75;;;;;;;;;;4990138;28;20051;-68
2022/07/24 06:59:43;;;;;;;11.75;3.92;;;;;;;;;;4990745;28;20061;-68
2022/07/24 07:02:13;;;;;;;9.52;3.63;;;;;;;;;;5002245;28;20053;-68
2022/07/24 07:04:43;;;;;;;9.80;3.75;;;;;;;;;;4990151;28;20061;-68
2022/07/24 07:07:15;;;;;;;8.25;3.45;;;;;;;;;;4970680;28;20047;-68
2022/07/24 07:09:45;;;;;;;8.68;4.50;;;;;;;;;;4970709;28;20392;-68
2022/07/24 07:12:15;;;;;;;9.20;3.83;;;;;;;;;;4970847;28;20061;-69
2022/07/24 07:14:45;;;;;;;8.23;3.90;;;;;;;;;;4951335;29;20047;-68
2022/07/24 07:17:16;;;;;;;10.82;4.10;;;;;;;;;;4951640;29;20136;-68
2022/07/24 07:19:46;;;;;;;10.85;3.55;;;;;;;;;;4919537;29;20066;-68
2022/07/24 07:22:16;;;;;;;8.30;3.83;;;;;;;;;;4919547;29;20062;-70
2022/07/24 07:24:46;;;;;;;8.43;3.30;;;;;;;;;;4951038;29;20066;-69
2022/07/24 07:27:17;;;;;;;10.30;3.70;;;;;;;;;;4951321;29;20167;-69
2022/07/24 07:29:47;;;;;;;7.38;3.33;;;;;;;;;;4935208;29;20079;-68
2022/07/24 07:32:17;;;;;;;10.57;3.60;;;;;;;;;;4951090;29;20151;-69
2022/07/24 07:34:48;;;;;;;9.35;4.00;;;;;;;;;;4970534;28;20061;-69
2022/07/24 07:37:21;;;;;;;13.60;3.42;;;;;;;;;;4993903;28;20050;-68
2022/07/24 07:39:52;;;;;;;7.32;3.38;;;;;;;;;;5009460;28;20065;-68
2022/07/24 07:42:22;;;;;;;7.47;3.05;;;;;;;;;;4970053;28;20057;-68
2022/07/24 07:44:52;;;;;;;7.60;3.78;;;;;;;;;;4989816;28;20083;-68
2022/07/24 07:47:23;;;;;;;7.50;3.45;;;;;;;;;;4969973;28;20057;-68
2022/07/24 07:49:53;;;;;;;7.43;3.20;;;;;;;;;;4921859;28;20522;-69
2022/07/24 07:52:23;;;;;;;7.80;3.35;;;;;;;;;;4959954;28;20053;-68
2022/07/24 07:54:53;;;;;;;8.63;3.47;;;;;;;;;;4989517;28;20062;-68
2022/07/24 07:57:24;;;;;;;8.02;4.03;;;;;;;;;;4989555;28;20446;-68
2022/07/24 08:00:16;;;;;;;6.22;2.97;;;;;;;;;;4989349;28;20054;-68
2022/07/24 08:02:46;;;;;;;12.18;3.22;;;;;;;;;;4989528;28;20065;-68
2022/07/24 08:05:16;;;;;;;6.80;3.40;;;;;;;;;;4988956;28;20050;-69
2022/07/24 08:07:46;;;;;;;8.32;3.28;;;;;;;;;;4969692;28;20050;-68
2022/07/24 08:10:17;;;;;;;9.18;3.38;;;;;;;;;;4969941;28;20058;-68
2022/07/24 08:12:49;;;;;;;6.20;3.70;;;;;;;;;;4969599;28;20407;-68
2022/07/24 08:15:19;;;;;;;5.93;3.38;;;;;;;;;;4969728;28;20047;-68
2022/07/24 08:17:57;;;;;;;8.07;2.72;;;;;;;;;;4969802;28;20050;-70
2022/07/24 08:20:28;;;;;;;6.78;2.97;;;;;;;;;;4896431;29;20051;-70
2022/07/24 08:22:58;;;;;;;6.75;3.40;;;;;;;;;;4935076;29;20063;-69
2022/07/24 08:25:28;;;;;;;7.45;3.13;;;;;;;;;;4976695;28;20050;-70
2022/07/24 08:27:58;;;;;;;9.43;3.10;;;;;;;;;;4989297;28;20094;-69
2022/07/24 08:30:29;;;;;;;10.95;3.20;;;;;;;;;;5015122;28;20061;-69
2022/07/24 08:32:59;;;;;;;7.53;3.28;;;;;;;;;;5028260;28;20062;-68
2022/07/24 08:35:30;;;;;;;9.55;3.60;;;;;;;;;;5011827;28;20056;-68
2022/07/24 08:38:02;;;;;;;8.15;4.20;;;;;;;;;;4995549;28;20485;-68
2022/07/24 08:40:38;;;;;;;9.05;3.63;;;;;;;;;;5028229;28;20485;-68
2022/07/24 08:43:09;;;;;;;10.43;3.22;;;;;;;;;;5011720;28;20079;-68
2022/07/24 08:45:42;;;;;;;6.47;2.92;;;;;;;;;;4984042;28;20052;-69
2022/07/24 08:48:12;;;;;;;8.60;3.30;;;;;;;;;;5031414;28;20056;-69
2022/07/24 08:50:43;;;;;;;7.70;3.10;;;;;;;;;;5048165;28;20200;-69
2022/07/24 08:53:14;;;;;;;7.20;3.03;;;;;;;;;;5048179;28;20053;-69
2022/07/24 08:55:45;;;;;;;6.47;3.20;;;;;;;;;;4998778;28;20053;-69
2022/07/24 08:58:15;;;;;;;6.82;3.80;;;;;;;;;;5083374;28;20423;-69
2022/07/24 09:00:45;;;;;;;6.32;3.20;;;;;;;;;;5050799;28;20049;-69
2022/07/24 09:03:15;;;;;;;8.05;2.90;;;;;;;;;;5068197;28;20061;-69
2022/07/24 09:06:14;;;;;;;6.00;3.35;;;;;;;;;;5067703;28;20420;-69
2022/07/24 09:09:00;;;;;;;10.20;3.03;;;;;;;;;;5008567;28;20053;-69
2022/07/24 09:11:36;;;;;;;6.82;3.13;;;;;;;;;;5008349;28;20050;-69
2022/07/24 09:17:13;;;;;;;8.23;2.67;;;;;;;;;;5008291;28;20118;-69
2022/07/24 09:19:51;;;;;;;8.82;2.85;;;;;;;;;;4984209;28;20086;-70
2022/07/24 09:22:34;;;;;;;6.28;2.78;;;;;;;;;;4968973;28;20074;-69
2022/07/24 09:25:21;;;;;;;8.95;2.83;;;;;;;;;;4953497;28;20063;-69
2022/07/24 09:28:02;;;;;;;8.27;2.75;;;;;;;;;;4969128;28;20662;-70
2022/07/24 09:30:43;;;;;;;8.52;2.88;;;;;;;;;;4969353;28;20086;-69
2022/07/24 09:33:13;;;;;;;6.03;3.05;;;;;;;;;;4969069;28;20065;-70
2022/07/24 09:35:49;;;;;;;7.38;3.30;;;;;;;;;;4895540;29;20067;-70
2022/07/24 09:38:26;;;;;;;8.15;2.72;;;;;;;;;;4892491;29;20492;-70
2022/07/24 09:40:59;;;;;;;6.95;3.13;;;;;;;;;;4911485;29;20052;-70
2022/07/24 09:43:31;;;;;;;7.72;2.72;;;;;;;;;;4913449;29;20067;-69
2022/07/24 09:46:09;;;;;;;7.10;2.92;;;;;;;;;;4914780;29;20055;-69
2022/07/24 09:48:56;;;;;;;8.23;2.78;;;;;;;;;;4883566;29;20059;-69
2022/07/24 09:51:28;;;;;;;6.55;2.50;;;;;;;;;;4897436;29;20067;-70
2022/07/24 09:54:00;;;;;;;8.40;2.65;;;;;;;;;;4933797;29;20071;-70
2022/07/24 09:56:31;;;;;;;6.30;2.70;;;;;;;;;;4933845;29;20055;-70
2022/07/24 09:59:07;;;;;;;6.32;2.70;;;;;;;;;;4938334;28;20044;-70
2022/07/24 10:01:43;;;;;;;9.05;2.97;;;;;;;;;;4943064;28;20443;-69
2022/07/24 10:04:19;;;;;;;14.68;2.90;;;;;;;;;;4975632;28;20059;-69
2022/07/24 10:06:51;;;;;;;7.65;3.50;;;;;;;;;;4955941;28;20047;-69
2022/07/24 10:09:25;;;;;;;9.18;3.58;;;;;;;;;;4940059;28;20113;-69
2022/07/24 10:11:57;;;;;;;6.53;2.85;;;;;;;;;;4972121;28;20069;-69
2022/07/24 10:14:28;;;;;;;8.48;2.75;;;;;;;;;;5028645;28;20078;-68
2022/07/24 10:17:07;;;;;;;6.72;2.60;;;;;;;;;;5049810;28;20060;-68
2022/07/24 10:19:53;;;;;;;11.45;3.42;;;;;;;;;;5050275;28;20048;-68
2022/07/24 10:22:24;;;;;;;8.18;3.00;;;;;;;;;;5030237;28;20053;-69
2022/07/24 10:25:00;;;;;;;9.48;6.90;;;;;;;;;;5030341;28;20061;-68
2022/07/24 10:27:36;;;;;;;10.50;3.33;;;;;;;;;;4958513;28;20050;-68
2022/07/24 10:30:09;;;;;;;7.38;3.17;;;;;;;;;;4991220;28;20058;-68
2022/07/24 10:32:40;;;;;;;10.27;3.03;;;;;;;;;;4974775;28;20054;-68
2022/07/24 10:35:14;;;;;;;8.15;2.97;;;;;;;;;;4990859;28;20054;-68
2022/07/24 10:37:58;;;;;;;7.18;2.95;;;;;;;;;;4990839;28;20526;-68
2022/07/24 10:40:43;;;;;;;13.88;3.67;;;;;;;;;;4951734;28;20054;-69
2022/07/24 10:43:18;;;;;;;7.50;2.88;;;;;;;;;;4952074;28;20055;-69
2022/07/24 10:45:57;;;;;;;7.47;2.50;;;;;;;;;;4921013;28;20055;-69
2022/07/24 10:48:30;;;;;;;7.45;3.15;;;;;;;;;;4952002;28;20043;-68
2022/07/24 10:51:07;;;;;;;6.25;2.60;;;;;;;;;;4913478;29;20056;-69
2022/07/24 10:53:38;;;;;;;8.90;2.78;;;;;;;;;;4913417;29;20133;-68
2022/07/24 10:56:42;;;;;;;9.52;3.50;;;;;;;;;;4913610;29;20424;-68
2022/07/24 10:59:14;;;;;;;11.68;2.95;;;;;;;;;;4919670;28;20059;-68
2022/07/24 11:01:50;;;;;;;6.93;4.30;;;;;;;;;;4951643;28;20445;-69
2022/07/24 11:04:22;;;;;;;7.40;3.35;;;;;;;;;;4954984;28;20059;-68
2022/07/24 11:06:57;;;;;;;8.93;2.97;;;;;;;;;;4970890;28;20063;-68
2022/07/24 11:09:29;;;;;;;8.23;3.33;;;;;;;;;;4917048;29;20052;-70
2022/07/24 11:12:00;;;;;;;6.93;3.00;;;;;;;;;;4931319;29;20086;-69
2022/07/24 11:14:43;;;;;;;7.10;3.22;;;;;;;;;;4932246;29;20055;-69
2022/07/24 11:17:39;;;;;;;8.25;3.35;;;;;;;;;;4934675;29;20056;-69
2022/07/24 11:20:15;;;;;;;8.63;3.60;;;;;;;;;;4903672;29;20583;-69
2022/07/24 11:22:55;;;;;;;9.60;3.88;;;;;;;;;;4951325;29;20055;-69
2022/07/24 11:25:30;;;;;;;10.93;3.83;;;;;;;;;;4947623;29;20050;-70
2022/07/24 11:28:09;;;;;;;10.30;4.15;;;;;;;;;;4944955;28;20501;-71
2022/07/24 11:30:46;;;;;;;9.80;3.80;;;;;;;;;;4957552;28;20061;-68
2022/07/24 11:33:22;;;;;;;10.35;3.92;;;;;;;;;;5014695;28;20137;-68
2022/07/24 11:35:52;;;;;;;9.32;4.05;;;;;;;;;;5045400;28;20058;-69
2022/07/24 11:38:30;;;;;;;11.40;4.85;;;;;;;;;;5013152;28;21034;-69
2022/07/24 11:41:07;;;;;;;13.45;4.18;;;;;;;;;;5029243;28;20058;-69
2022/07/24 11:43:53;;;;;;;9.57;4.13;;;;;;;;;;5029066;28;20053;-69
2022/07/24 11:46:34;;;;;;;13.18;4.30;;;;;;;;;;5033073;28;20060;-69
2022/07/24 11:49:10;;;;;;;10.98;4.95;;;;;;;;;;5009062;28;20057;-69
2022/07/24 11:51:47;;;;;;;11.93;4.43;;;;;;;;;;5009252;28;20159;-69
2022/07/24 11:54:27;;;;;;;10.25;4.15;;;;;;;;;;4970010;28;20494;-69
2022/07/24 11:56:58;;;;;;;12.20;4.53;;;;;;;;;;4969547;28;20051;-70
2022/07/24 11:59:30;;;;;;;10.30;5.53;;;;;;;;;;4954577;28;20419;-69
2022/07/24 12:02:07;;;;;;;11.73;4.72;;;;;;;;;;4922202;28;20570;-69
2022/07/24 12:04:40;;;;;;;10.45;4.57;;;;;;;;;;4956898;28;20063;-69
2022/07/24 12:07:17;;;;;;;11.57;4.63;;;;;;;;;;4988861;28;20507;-70
2022/07/24 12:09:49;;;;;;;10.48;4.35;;;;;;;;;;4989513;28;20077;-69
2022/07/24 12:12:22;;;;;;;10.05;4.13;;;;;;;;;;4989208;28;20066;-69
2022/07/24 12:15:02;;;;;;;12.48;4.22;;;;;;;;;;4969532;28;20658;-69
2022/07/24 12:17:52;;;;;;;9.20;3.92;;;;;;;;;;4969539;28;20066;-69
2022/07/24 12:20:27;;;;;;;12.85;4.30;;;;;;;;;;4992228;28;20050;-69
2022/07/24 12:23:00;;;;;;;11.93;4.68;;;;;;;;;;5008783;28;20053;-69
2022/07/24 12:25:31;;;;;;;14.55;6.90;;;;;;;;;;5008638;28;20057;-69
2022/07/24 12:28:06;;;;;;;12.32;5.25;;;;;;;;;;5009142;28;20060;-69
2022/07/24 12:30:40;;;;;;;9.02;4.00;;;;;;;;;;5008679;28;20050;-68
2022/07/24 12:33:24;;;;;;;9.40;4.30;;;;;;;;;;5048305;28;20569;-68
2022/07/24 12:36:08;;;;;;;14.60;4.43;;;;;;;;;;5015033;28;20060;-68
2022/07/24 12:38:54;;;;;;;9.55;5.18;;;;;;;;;;5048379;28;20440;-68
2022/07/24 12:41:27;;;;;;;8.77;4.40;;;;;;;;;;5048231;28;20048;-69
2022/07/24 12:44:06;;;;;;;12.07;6.50;;;;;;;;;;5015205;28;20416;-69
2022/07/24 12:46:44;;;;;;;16.50;6.70;;;;;;;;;;5048315;28;20072;-69
2022/07/24 12:49:15;;;;;;;9.65;5.72;;;;;;;;;;5048241;28;20041;-69
2022/07/24 12:51:52;;;;;;;12.02;5.05;;;;;;;;;;5059957;28;20047;-69
2022/07/24 12:54:24;;;;;;;13.95;7.80;;;;;;;;;;5087730;28;20048;-69
2022/07/24 12:56:57;;;;;;;16.08;7.68;;;;;;;;;;5088616;28;20055;-68
2022/07/24 12:59:33;;;;;;;17.10;10.82;;;;;;;;;;5047685;28;20441;-68
2022/07/24 13:02:08;;;;;;;25.08;14.00;;;;;;;;;;5048417;28;20053;-68
2022/07/24 13:04:44;;;;;;;16.25;8.50;;;;;;;;;;4983079;28;20064;-69
2022/07/24 13:07:17;;;;;;;13.77;6.95;;;;;;;;;;4998561;28;20057;-68
2022/07/24 13:09:49;;;;;;;14.07;7.75;;;;;;;;;;4972666;28;20055;-68
2022/07/24 13:12:20;;;;;;;15.15;7.57;;;;;;;;;;4940834;28;20046;-68
2022/07/24 13:14:51;;;;;;;16.65;7.93;;;;;;;;;;4969007;28;20070;-67
2022/07/24 13:17:21;;;;;;;18.83;9.43;;;;;;;;;;4885393;29;20465;-67
2022/07/24 13:19:52;;;;;;;17.98;8.52;;;;;;;;;;4934450;29;20062;-65
2022/07/24 13:22:24;;;;;;;14.23;6.97;;;;;;;;;;4934558;29;20047;-66
2022/07/24 13:24:55;;;;;;;14.13;7.22;;;;;;;;;;4915120;29;20059;-66
2022/07/24 13:27:30;;;;;;;16.38;6.80;;;;;;;;;;4877532;29;20057;-66
2022/07/24 13:30:21;;;;;;;10.65;5.88;;;;;;;;;;4877662;29;20060;-65
2022/07/24 13:33:13;;;;;;;27.48;18.60;;;;;;;;;;4877630;29;20053;-66
2022/07/24 13:35:50;;;;;;;12.00;6.90;;;;;;;;;;4861756;29;20053;-66
2022/07/24 13:38:25;;;;;;;;;;;;;;;;;;4896719;29;20056;-66
2022/07/24 13:40:58;;;;;;;10.77;4.82;;;;;;;;;;4884573;29;19923;-65
2022/07/24 13:43:32;;;;;;;9.40;3.72;;;;;;;;;;4916622;29;20579;-66
2022/07/24 13:46:24;;;;;;;6.28;3.47;;;;;;;;;;4914047;29;20048;-66
2022/07/24 13:49:04;;;;;;;12.80;7.45;;;;;;;;;;4933842;29;20048;-66
2022/07/24 13:51:58;;;;;;;7.88;3.83;;;;;;;;;;4882267;29;20056;-66
2022/07/24 13:54:51;;;;;;;8.13;5.30;;;;;;;;;;4901172;29;20056;-68
2022/07/24 13:57:25;;;;;;;5.97;3.30;;;;;;;;;;4864601;29;20061;-66
2022/07/24 13:59:58;;;;;;;8.40;2.58;;;;;;;;;;4880095;29;20049;-68
2022/07/24 14:02:55;;;;;;;8.68;3.17;;;;;;;;;;4896058;29;20526;-67
2022/07/24 14:05:27;;;;;;;5.88;2.53;;;;;;;;;;4889213;29;20060;-66
2022/07/24 14:08:01;;;;;;;7.50;2.78;;;;;;;;;;4892439;29;20056;-67
2022/07/24 14:10:35;;;;;;;6.00;2.88;;;;;;;;;;4910467;29;20056;-66
2022/07/24 14:13:10;;;;;;;8.05;2.85;;;;;;;;;;4895972;29;20065;-66
2022/07/24 14:15:47;;;;;;;8.60;2.83;;;;;;;;;;4894350;29;20521;-66
2022/07/24 14:18:58;;;;;;;8.23;2.50;;;;;;;;;;4882680;29;20056;-66
2022/07/24 14:21:33;;;;;;;10.38;2.88;;;;;;;;;;4869694;29;20555;-66
2022/07/24 14:24:08;;;;;;;5.10;2.80;;;;;;;;;;4816659;29;20102;-66
2022/07/24 14:26:46;;;;;;;8.63;3.88;;;;;;;;;;4839211;29;20056;-66
2022/07/24 14:29:20;;;;;;;4.47;2.25;;;;;;;;;;4875456;29;20057;-66
2022/07/24 14:31:51;;;;;;;4.38;2.03;;;;;;;;;;4876495;29;20065;-65
2022/07/24 14:34:43;;;;;;;8.95;2.50;;;;;;;;;;4894885;29;20057;-66
2022/07/24 14:37:14;;;;;;;6.68;2.03;;;;;;;;;;4895188;29;20048;-66
2022/07/24 14:39:46;;;;;;;6.85;2.53;;;;;;;;;;4895508;29;20048;-66
2022/07/24 14:42:17;;;;;;;4.60;2.15;;;;;;;;;;4879306;29;20057;-65
2022/07/24 14:44:50;;;;;;;4.72;2.10;;;;;;;;;;4845600;29;20525;-66
2022/07/24 14:47:20;;;;;;;5.57;3.03;;;;;;;;;;4876361;29;20493;-67
2022/07/24 14:49:51;;;;;;;6.30;2.80;;;;;;;;;;4894685;29;20059;-66
2022/07/24 14:52:23;;;;;;;6.00;2.17;;;;;;;;;;4895125;29;20059;-67
2022/07/24 14:54:53;;;;;;;;;;;;;;;;;;4901095;29;20071;-66
2022/07/24 14:57:23;;;;;;;5.45;1.90;;;;;;;;;;4936135;29;19929;-66
2022/07/24 14:59:54;;;;;;;6.35;2.97;;;;;;;;;;5000119;28;20454;-65
2022/07/24 15:02:24;;;;;;;6.93;4.00;;;;;;;;;;4990418;28;20415;-65
2022/07/24 15:04:55;;;;;;;5.68;3.35;;;;;;;;;;4935469;29;20392;-65
2022/07/24 15:07:26;;;;;;;5.15;2.13;;;;;;;;;;4951503;29;20523;-65
2022/07/24 15:09:58;;;;;;;6.72;2.20;;;;;;;;;;4951709;29;20522;-65
2022/07/24 15:12:28;;;;;;;6.63;2.25;;;;;;;;;;4938316;28;20074;-65
2022/07/24 15:14:59;;;;;;;3.88;1.75;;;;;;;;;;4954612;28;20058;-67
2022/07/24 15:17:30;;;;;;;6.75;2.13;;;;;;;;;;4938550;28;20059;-66